Time;durP1;ratioP1;P1;durP2;ratioP2;P2;SDS_P1;SDS_P2;PMS_P1;PMS_P2;Temp;Humidity;BMP_temperature;BMP_pressure;BME280_temperature;BME280_humidity;BME280_pressure;Samples;Min_cycle;Max_cycle;Signal;HPM_P1;HPM_P2
2023/05/19 00:01:01;;;;;;;4.87;2.40;;;;;;;14.95;82.68;99498.63;5035221;28;20665;-64
2023/05/19 00:03:30;;;;;;;3.13;2.40;;;;;;;15.07;82.46;99504.84;5034845;28;20201;-63
2023/05/19 00:05:58;;;;;;;2.57;2.37;;;;;;;15.02;82.37;99496.69;5015368;28;20229;-63
2023/05/19 00:08:25;;;;;;;2.63;2.07;;;;;;;15.05;82.38;99498.09;5016981;28;20202;-63
2023/05/19 00:10:54;;;;;;;2.47;2.37;;;;;;;14.98;82.62;99500.84;5034966;28;20251;-62
2023/05/19 00:13:21;;;;;;;2.47;2.37;;;;;;;15.04;82.12;99491.13;5035322;28;20646;-63
2023/05/19 00:15:48;;;;;;;2.50;2.30;;;;;;;15.06;82.24;99489.84;5035271;28;20271;-63
2023/05/19 00:18:15;;;;;;;3.20;1.93;;;;;;;15.05;81.92;99490.91;5033852;28;20251;-64
2023/05/19 00:20:42;;;;;;;2.83;2.63;;;;;;;15.06;81.99;99489.84;5015457;28;20194;-63
2023/05/19 00:23:10;;;;;;;3.10;2.77;;;;;;;15.03;81.76;99490.28;5015435;28;20271;-63
2023/05/19 00:25:37;;;;;;;2.70;2.60;;;;;;;15.04;81.69;99502.63;5015020;28;20256;-63
2023/05/19 00:28:05;;;;;;;3.77;2.33;;;;;;;15.06;81.51;99489.84;5015013;28;20735;-63
2023/05/19 00:30:32;;;;;;;2.70;2.50;;;;;;;14.99;81.69;99491.78;5015417;28;20288;-63
2023/05/19 00:32:58;;;;;;;3.53;2.03;;;;;;;15.02;81.29;99494.00;5015156;28;20222;-64
2023/05/19 00:35:25;;;;;;;3.63;2.43;;;;;;;15.07;81.36;99496.81;5022692;28;20239;-63
2023/05/19 00:37:52;;;;;;;3.07;1.97;;;;;;;15.03;81.30;99490.28;5034715;28;20197;-64
2023/05/19 00:40:19;;;;;;;2.60;2.40;;;;;;;14.98;81.45;99487.47;5032972;28;20255;-63
2023/05/19 00:42:45;;;;;;;2.37;2.17;;;;;;;15.08;80.72;99489.63;5034908;28;20627;-63
2023/05/19 00:45:13;;;;;;;2.70;2.60;;;;;;;15.01;81.07;99467.47;5034739;28;20255;-63
2023/05/19 00:47:40;;;;;;;2.60;2.40;;;;;;;15.09;80.61;99484.06;5025026;28;20744;-63
2023/05/19 00:50:07;;;;;;;2.40;2.30;;;;;;;15.06;81.12;99484.50;5014592;28;20630;-62
2023/05/19 00:52:34;;;;;;;2.70;2.53;;;;;;;15.05;80.63;99482.88;5014847;28;20226;-62
2023/05/19 00:55:01;;;;;;;4.30;2.40;;;;;;;15.09;80.46;99488.56;5014454;28;20716;-63
2023/05/19 00:57:28;;;;;;;2.70;2.50;;;;;;;15.12;80.57;99480.13;5020800;28;20345;-63
2023/05/19 00:59:55;;;;;;;2.10;2.00;;;;;;;15.09;80.43;99473.34;5034453;28;20260;-63
2023/05/19 01:02:23;;;;;;;2.30;2.20;;;;;;;15.10;80.78;99472.31;5034476;28;20197;-62
2023/05/19 01:04:52;;;;;;;5.20;2.40;;;;;;;15.07;80.41;99475.41;5022476;28;20198;-63
2023/05/19 01:07:20;;;;;;;2.60;2.23;;;;;;;15.05;80.40;99482.03;5019196;28;20190;-62
2023/05/19 01:09:47;;;;;;;2.50;2.27;;;;;;;15.12;79.89;99477.44;5034419;28;20648;-62
2023/05/19 01:12:14;;;;;;;2.63;2.53;;;;;;;15.09;80.36;99475.19;5034188;28;20225;-62
2023/05/19 01:14:41;;;;;;;2.67;2.10;;;;;;;15.10;80.24;99483.00;5033967;28;20754;-63
2023/05/19 01:17:14;;;;;;;7.23;2.50;;;;;;;15.03;80.39;99474.25;5029307;28;20682;-63
2023/05/19 01:19:56;;;;;;;2.90;2.77;;;;;;;15.05;80.50;99479.38;5022072;28;20182;-63
2023/05/19 01:22:45;;;;;;;3.23;2.93;;;;;;;14.93;81.12;99476.63;5022771;28;20209;-63
2023/05/19 01:25:42;;;;;;;2.10;2.00;;;;;;;14.91;80.80;99477.91;5023842;28;20183;-63
2023/05/19 01:28:44;;;;;;;2.53;2.43;;;;;;;15.02;81.08;99487.84;5021515;28;20196;-63
2023/05/19 01:31:13;;;;;;;2.97;2.67;;;;;;;14.96;80.85;99478.84;5021994;28;20225;-63
2023/05/19 01:33:41;;;;;;;2.70;2.50;;;;;;;14.97;80.22;99479.66;5024472;28;20225;-64
2023/05/19 01:36:10;;;;;;;3.23;2.93;;;;;;;15.01;80.24;99483.53;5022986;28;20190;-64
2023/05/19 01:38:38;;;;;;;2.63;2.43;;;;;;;15.05;79.96;99482.88;5022309;28;20255;-64
2023/05/19 01:41:06;;;;;;;2.83;2.30;;;;;;;15.06;79.97;99484.50;5018944;28;20190;-63
2023/05/19 01:43:33;;;;;;;3.33;2.43;;;;;;;15.04;79.52;99486.56;5023624;28;20643;-63
2023/05/19 01:46:02;;;;;;;3.03;2.70;;;;;;;15.07;79.85;99486.13;5022176;28;20260;-63
2023/05/19 01:48:30;;;;;;;3.60;2.33;;;;;;;15.05;79.36;99485.53;5022965;28;20196;-62
2023/05/19 01:50:57;;;;;;;2.80;2.57;;;;;;;15.00;79.70;99482.69;5023602;28;20659;-64
2023/05/19 01:53:24;;;;;;;2.57;2.10;;;;;;;14.93;79.53;99482.00;5021756;28;20594;-63
2023/05/19 01:55:52;;;;;;;2.53;2.33;;;;;;;15.01;79.37;99483.53;5023818;28;20220;-63
2023/05/19 01:58:28;;;;;;;3.63;2.50;;;;;;;15.05;79.04;99482.03;5023429;28;20190;-63
2023/05/19 02:01:03;;;;;;;3.07;2.80;;;;;;;15.02;79.10;99491.34;5023445;28;20186;-63
2023/05/19 02:03:42;;;;;;;4.30;2.60;;;;;;;14.99;79.40;99486.44;5022084;28;20276;-64
2023/05/19 02:06:22;;;;;;;4.87;2.60;;;;;;;15.09;78.72;99493.94;5022632;28;20247;-63
2023/05/19 02:08:57;;;;;;;2.87;2.67;;;;;;;15.04;78.80;99481.22;5020725;28;20186;-64
2023/05/19 02:11:31;;;;;;;2.50;2.40;;;;;;;15.05;78.40;99490.91;5021537;28;20649;-64
2023/05/19 02:14:02;;;;;;;2.50;2.40;;;;;;;15.01;79.15;99495.06;5021795;28;20204;-64
2023/05/19 02:16:29;;;;;;;2.63;2.40;;;;;;;14.96;78.85;99494.88;5022099;28;20186;-63
2023/05/19 02:18:58;;;;;;;2.90;2.60;;;;;;;15.04;79.01;99491.91;5021753;28;20265;-63
2023/05/19 02:21:25;;;;;;;2.70;2.50;;;;;;;14.99;79.43;99493.66;5012618;28;20549;-63
2023/05/19 02:23:51;;;;;;;2.80;2.53;;;;;;;15.01;79.00;99497.75;5013211;28;20288;-63
2023/05/19 02:26:18;;;;;;;3.10;2.83;;;;;;;15.02;79.00;99495.84;5012795;28;20248;-63
2023/05/19 02:28:45;;;;;;;3.10;2.90;;;;;;;15.05;79.19;99503.44;5012901;28;20606;-64
2023/05/19 02:31:11;;;;;;;3.63;2.83;;;;;;;15.01;79.32;99496.91;5012976;28;20776;-63
2023/05/19 02:33:38;;;;;;;2.70;2.60;;;;;;;15.11;79.31;99500.69;5012671;28;20709;-63
2023/05/19 02:36:07;;;;;;;3.20;3.00;;;;;;;14.94;79.10;99497.00;5013035;28;20645;-63
2023/05/19 02:38:35;;;;;;;5.50;2.73;;;;;;;14.90;79.62;99505.66;5025507;28;20717;-63
2023/05/19 02:41:02;;;;;;;2.80;2.60;;;;;;;14.94;79.41;99497.00;5032560;28;20201;-63
2023/05/19 02:43:29;;;;;;;4.70;3.13;;;;;;;14.90;80.07;99503.81;5032334;28;20296;-63
2023/05/19 02:45:56;;;;;;;3.70;3.10;;;;;;;14.82;80.02;99488.06;5032548;28;20189;-64
2023/05/19 02:48:22;;;;;;;3.33;3.03;;;;;;;14.86;79.91;99491.09;5025749;28;20251;-63
2023/05/19 02:50:49;;;;;;;3.10;2.80;;;;;;;14.65;80.17;99479.00;5031061;28;20197;-63
2023/05/19 02:53:17;;;;;;;3.30;2.97;;;;;;;14.82;80.19;99501.44;5031987;28;20225;-63
2023/05/19 02:55:44;;;;;;;9.23;3.10;;;;;;;14.90;79.95;99500.31;5032468;28;20194;-63
2023/05/19 02:58:10;;;;;;;6.33;5.93;;;;;;;14.84;80.44;99491.34;5031957;28;20193;-66
2023/05/19 03:00:37;;;;;;;2.87;2.67;;;;;;;14.88;80.32;99492.56;5012581;28;20240;-63
2023/05/19 03:03:04;;;;;;;3.00;2.80;;;;;;;14.92;79.92;99498.25;5012154;28;20193;-63
2023/05/19 03:05:31;;;;;;;3.20;2.83;;;;;;;14.84;80.10;99496.72;5029364;28;20201;-62
2023/05/19 03:07:57;;;;;;;5.00;2.90;;;;;;;14.91;79.97;99510.00;5032199;28;20251;-63
2023/05/19 03:10:25;;;;;;;2.93;2.73;;;;;;;14.92;79.91;99503.59;5030424;28;20248;-62
2023/05/19 03:12:52;;;;;;;4.00;3.60;;;;;;;14.89;80.00;99502.19;5031751;28;20664;-62
2023/05/19 03:15:19;;;;;;;4.23;3.20;;;;;;;14.93;79.90;99514.09;5031868;28;20596;-62
2023/05/19 03:17:46;;;;;;;3.10;2.90;;;;;;;14.90;80.14;99522.53;5031706;28;20193;-64
2023/05/19 03:20:14;;;;;;;4.73;3.77;;;;;;;14.91;80.15;99508.13;5017164;28;20190;-64
2023/05/19 03:22:41;;;;;;;3.00;2.80;;;;;;;14.89;80.46;99510.22;5012217;28;20229;-64
2023/05/19 03:25:08;;;;;;;3.70;3.43;;;;;;;14.94;80.71;99512.22;5012046;28;20728;-64
2023/05/19 03:27:36;;;;;;;6.00;3.40;;;;;;;14.99;80.67;99518.53;5011940;28;20666;-63
2023/05/19 03:30:03;;;;;;;7.43;3.20;;;;;;;15.08;80.69;99527.88;5023973;28;20232;-63
2023/05/19 03:32:31;;;;;;;3.00;2.90;;;;;;;15.13;80.33;99522.69;5035794;28;20665;-62
2023/05/19 03:34:58;;;;;;;3.97;3.47;;;;;;;14.99;80.87;99509.69;5036130;28;20302;-63
2023/05/19 03:37:25;;;;;;;4.73;3.33;;;;;;;15.05;80.64;99514.16;5036019;28;20251;-62
2023/05/19 03:39:52;;;;;;;4.97;3.27;;;;;;;15.06;80.44;99521.94;5024842;28;20232;-62
2023/05/19 03:42:18;;;;;;;3.43;3.13;;;;;;;15.03;80.30;99524.28;5017130;28;20186;-62
2023/05/19 03:44:47;;;;;;;3.83;3.17;;;;;;;15.09;80.49;99526.88;5015765;28;20251;-62
2023/05/19 03:47:13;;;;;;;4.97;3.20;;;;;;;15.04;79.73;99513.31;5016108;28;20194;-62
2023/05/19 03:49:40;;;;;;;5.73;3.13;;;;;;;15.24;79.62;99535.31;5015700;28;20194;-62
2023/05/19 03:52:08;;;;;;;3.10;2.90;;;;;;;15.21;79.48;99535.78;5017268;28;20335;-62
2023/05/19 03:54:36;;;;;;;3.40;3.20;;;;;;;15.33;79.25;99533.97;5035401;28;20723;-62
2023/05/19 03:57:02;;;;;;;3.73;3.37;;;;;;;15.35;79.24;99525.72;5035603;28;20201;-62
2023/05/19 03:59:30;;;;;;;6.23;3.40;;;;;;;15.44;78.68;99535.09;5035423;28;20201;-62
2023/05/19 04:01:58;;;;;;;3.23;2.93;;;;;;;15.44;78.47;99538.59;5022686;28;20194;-62
2023/05/19 04:04:25;;;;;;;3.67;3.37;;;;;;;15.41;79.07;99536.34;5023604;28;20592;-62
2023/05/19 04:06:51;;;;;;;6.70;3.13;;;;;;;15.41;78.77;99547.06;5035041;28;20201;-63
2023/05/19 04:09:18;;;;;;;3.13;2.93;;;;;;;15.48;78.36;99547.00;5035433;28;20190;-63
2023/05/19 04:11:45;;;;;;;7.07;4.00;;;;;;;15.52;78.54;99551.66;5033939;28;20210;-62
2023/05/19 04:14:11;;;;;;;6.93;3.47;;;;;;;15.66;78.58;99550.44;5035250;28;20267;-62
2023/05/19 04:16:38;;;;;;;7.00;3.80;;;;;;;15.59;78.44;99548.88;5035049;28;20727;-62
2023/05/19 04:19:06;;;;;;;5.80;3.50;;;;;;;15.59;79.00;99546.22;5035145;28;20215;-62
2023/05/19 04:21:33;;;;;;;4.87;3.37;;;;;;;15.56;79.04;99547.47;5026335;28;20264;-62
2023/05/19 04:24:00;;;;;;;3.50;3.27;;;;;;;15.53;78.75;99539.91;5015296;28;20241;-63
2023/05/19 04:26:29;;;;;;;3.80;3.50;;;;;;;15.55;78.86;99545.84;5015427;28;20194;-62
2023/05/19 04:28:56;;;;;;;4.37;3.90;;;;;;;15.64;78.28;99540.97;5015197;28;20213;-62
2023/05/19 04:31:23;;;;;;;3.90;3.60;;;;;;;15.57;78.84;99541.06;5021602;28;20312;-62
2023/05/19 04:33:49;;;;;;;4.20;3.90;;;;;;;15.66;78.40;99554.97;5034413;28;20221;-62
2023/05/19 04:36:20;;;;;;;9.00;4.23;;;;;;;15.73;78.38;99553.84;5034698;28;20259;-63
2023/05/19 04:38:47;;;;;;;6.93;3.97;;;;;;;15.70;78.00;99559.66;5031586;28;20185;-64
2023/05/19 04:41:15;;;;;;;9.73;4.23;;;;;;;15.76;77.84;99555.22;5030876;28;20201;-64
2023/05/19 04:43:43;;;;;;;4.33;3.93;;;;;;;15.83;78.00;99556.78;5034808;28;20205;-64
2023/05/19 04:46:11;;;;;;;5.40;4.00;;;;;;;15.97;77.92;99564.63;5031601;28;20738;-63
2023/05/19 04:48:38;;;;;;;4.50;3.67;;;;;;;16.01;77.61;99566.63;5019678;28;20200;-63
2023/05/19 04:51:06;;;;;;;10.43;4.10;;;;;;;16.32;76.91;99577.06;5016982;28;20190;-64
2023/05/19 04:53:35;;;;;;;4.20;3.87;;;;;;;16.77;75.20;99577.34;5014127;28;20705;-62
2023/05/19 04:56:02;;;;;;;8.07;4.17;;;;;;;17.56;72.45;99591.72;5023382;28;20679;-64
2023/05/19 04:58:29;;;;;;;13.63;4.70;;;;;;;18.76;68.49;99598.47;5033137;28;20198;-66
2023/05/19 05:00:56;;;;;;;4.53;3.07;;;;;;;19.82;64.78;99609.63;5033051;28;20193;-67
2023/05/19 05:03:23;;;;;;;3.70;3.50;;;;;;;20.73;61.55;99606.75;5034041;28;20202;-67
2023/05/19 05:05:50;;;;;;;4.07;3.70;;;;;;;21.52;58.48;99615.63;5013078;28;20199;-68
2023/05/19 05:08:21;;;;;;;7.77;3.50;;;;;;;21.98;55.80;99620.16;5013051;28;20238;-67
2023/05/19 05:10:51;;;;;;;4.70;3.60;;;;;;;22.50;54.96;99624.31;5022369;28;20650;-68
2023/05/19 05:13:18;;;;;;;9.33;3.50;;;;;;;22.56;53.46;99623.25;5033819;28;20208;-72
2023/05/19 05:15:46;;;;;;;7.57;4.10;;;;;;;22.88;52.87;99631.91;5034266;28;20193;-71
2023/05/19 05:18:13;;;;;;;3.90;3.10;;;;;;;23.08;52.29;99631.88;5030909;28;20192;-69
2023/05/19 05:20:41;;;;;;;5.37;3.77;;;;;;;23.61;51.38;99631.22;5017459;28;20198;-69
2023/05/19 05:23:09;;;;;;;5.37;3.63;;;;;;;23.91;50.44;99636.56;5014235;28;20224;-64
2023/05/19 05:25:36;;;;;;;4.53;3.60;;;;;;;23.99;49.17;99627.84;5013956;28;20288;-64
2023/05/19 05:28:05;;;;;;;12.63;4.07;;;;;;;23.67;49.57;99632.00;5024229;28;20256;-65
2023/05/19 05:30:33;;;;;;;3.70;3.40;;;;;;;23.43;50.54;99626.41;5032112;28;20770;-64
2023/05/19 05:33:00;;;;;;;5.47;3.93;;;;;;;23.61;50.42;99622.28;5030440;28;20186;-65
2023/05/19 05:35:27;;;;;;;4.00;3.80;;;;;;;23.92;50.96;99621.88;5029425;28;20724;-65
2023/05/19 05:37:54;;;;;;;14.60;4.40;;;;;;;24.20;49.34;99623.09;5020534;28;20743;-65
2023/05/19 05:40:21;;;;;;;4.90;3.93;;;;;;;24.09;48.44;99630.47;5022626;28;20684;-65
2023/05/19 05:42:48;;;;;;;4.37;3.97;;;;;;;23.93;49.27;99623.50;5025028;28;20194;-66
2023/05/19 05:45:16;;;;;;;4.50;4.20;;;;;;;24.05;49.08;99631.34;5027671;28;20255;-66
2023/05/19 05:47:43;;;;;;;14.50;4.83;;;;;;;24.07;49.26;99634.56;5028567;28;20193;-69
2023/05/19 05:50:11;;;;;;;4.43;3.90;;;;;;;24.25;48.71;99637.44;5026700;28;20193;-71
2023/05/19 05:52:39;;;;;;;4.97;3.83;;;;;;;24.24;48.51;99629.56;5026389;28;20730;-67
2023/05/19 05:55:07;;;;;;;6.70;3.90;;;;;;;24.01;48.21;99631.06;5021110;28;20252;-66
2023/05/19 05:57:35;;;;;;;15.37;4.53;;;;;;;23.65;50.15;99626.84;5029625;28;20231;-66
2023/05/19 06:00:04;;;;;;;4.43;4.13;;;;;;;23.36;50.71;99631.28;5029631;28;20243;-67
2023/05/19 06:02:32;;;;;;;4.97;4.40;;;;;;;23.29;50.59;99633.50;5029640;28;20209;-65
2023/05/19 06:04:59;;;;;;;8.80;4.37;;;;;;;23.54;50.91;99641.56;5023908;28;20692;-66
2023/05/19 06:07:26;;;;;;;4.90;4.43;;;;;;;23.76;50.25;99639.31;5015419;28;20237;-71
2023/05/19 06:09:52;;;;;;;5.73;3.93;;;;;;;23.81;50.09;99641.97;5028274;28;20259;-67
2023/05/19 06:12:19;;;;;;;4.73;4.43;;;;;;;24.22;50.54;99642.63;5028745;28;20194;-65
2023/05/19 06:14:46;;;;;;;7.83;4.30;;;;;;;24.56;49.93;99655.16;5024545;28;20249;-67
2023/05/19 06:17:12;;;;;;;10.50;5.07;;;;;;;24.68;48.81;99660.25;5018234;28;20206;-65
2023/05/19 06:19:40;;;;;;;5.73;4.20;;;;;;;23.75;50.47;99650.41;5021893;28;20226;-68
2023/05/19 06:22:07;;;;;;;13.43;4.60;;;;;;;23.53;51.09;99655.41;5027364;28;20194;-66
2023/05/19 06:24:34;;;;;;;4.80;4.40;;;;;;;23.32;51.75;99653.84;5020706;28;20248;-66
2023/05/19 06:27:00;;;;;;;14.97;5.17;;;;;;;22.59;53.67;99652.50;5013248;28;20736;-67
2023/05/19 06:29:27;;;;;;;4.57;4.33;;;;;;;21.83;56.10;99649.84;5021465;28;20225;-66
2023/05/19 06:31:54;;;;;;;5.70;5.20;;;;;;;21.49;58.27;99651.28;5020344;28;20637;-67
2023/05/19 06:34:20;;;;;;;8.13;5.87;;;;;;;21.18;58.60;99647.59;5013349;28;20221;-66
2023/05/19 06:36:48;;;;;;;5.20;4.60;;;;;;;21.51;59.02;99658.06;5018820;28;20197;-65
2023/05/19 06:39:15;;;;;;;5.87;5.30;;;;;;;21.67;58.09;99657.06;5032336;28;20198;-64
2023/05/19 06:41:42;;;;;;;6.23;4.73;;;;;;;21.58;57.86;99653.22;5032621;28;20246;-64
2023/05/19 06:44:08;;;;;;;5.50;4.60;;;;;;;21.41;58.46;99652.63;5032473;28;20251;-64
2023/05/19 06:46:35;;;;;;;8.27;5.33;;;;;;;21.28;59.39;99655.78;5016106;28;20396;-64
2023/05/19 06:49:02;;;;;;;7.43;5.63;;;;;;;21.67;59.06;99654.34;5012932;28;20248;-64
2023/05/19 06:51:28;;;;;;;6.10;5.60;;;;;;;21.71;58.88;99658.19;5018173;28;20193;-65
2023/05/19 06:53:56;;;;;;;5.50;5.00;;;;;;;21.68;59.35;99647.88;5014064;28;20283;-74
2023/05/19 06:56:23;;;;;;;19.20;6.63;;;;;;;21.94;59.84;99651.53;5016066;28;20198;-65
2023/05/19 06:58:50;;;;;;;5.57;5.07;;;;;;;22.34;58.21;99652.41;5020252;28;20867;-64
2023/05/19 07:01:16;;;;;;;35.77;7.63;;;;;;;22.93;56.13;99648.16;5011459;28;20198;-66
2023/05/19 07:03:43;;;;;;;6.67;5.17;;;;;;;23.42;54.17;99654.63;5012686;28;20193;-66
2023/05/19 07:06:10;;;;;;;15.97;6.10;;;;;;;23.51;53.98;99646.72;5029924;28;20193;-65
2023/05/19 07:08:37;;;;;;;7.50;5.10;;;;;;;23.65;54.92;99648.56;5032074;28;20661;-65
2023/05/19 07:11:05;;;;;;;7.93;6.40;;;;;;;23.64;53.45;99652.38;5031756;28;20190;-66
2023/05/19 07:13:32;;;;;;;9.10;5.60;;;;;;;23.29;55.32;99643.53;5032092;28;20198;-65
2023/05/19 07:15:59;;;;;;;11.00;6.20;;;;;;;23.16;54.67;99644.88;5027271;28;20218;-66
2023/05/19 07:18:25;;;;;;;6.47;5.97;;;;;;;22.94;55.80;99641.66;5031797;28;20190;-65
2023/05/19 07:20:52;;;;;;;6.20;5.70;;;;;;;22.86;55.83;99644.09;5031998;28;20202;-65
2023/05/19 07:23:19;;;;;;;6.03;5.43;;;;;;;23.26;56.45;99639.47;5026904;28;20573;-66
2023/05/19 07:25:45;;;;;;;9.40;6.20;;;;;;;23.05;56.41;99637.03;5031785;28;20193;-73
2023/05/19 07:28:13;;;;;;;7.30;6.70;;;;;;;23.13;57.06;99631.06;5012300;28;20210;-65
2023/05/19 07:30:40;;;;;;;6.03;5.43;;;;;;;23.30;56.36;99639.72;5012047;28;20706;-66
2023/05/19 07:33:07;;;;;;;17.60;6.67;;;;;;;23.65;55.46;99653.97;5012288;28;20197;-64
2023/05/19 07:35:35;;;;;;;15.30;6.27;;;;;;;23.94;54.87;99640.63;5015390;28;20271;-66
2023/05/19 07:38:02;;;;;;;7.00;6.37;;;;;;;24.06;54.24;99649.25;5024911;28;20585;-64
2023/05/19 07:40:28;;;;;;;6.20;5.70;;;;;;;24.50;54.58;99658.19;5030863;28;20234;-64
2023/05/19 07:42:55;;;;;;;7.30;5.97;;;;;;;24.90;52.73;99661.44;5031271;28;20732;-64
2023/05/19 07:45:23;;;;;;;6.23;5.77;;;;;;;24.85;51.13;99664.19;5030103;28;20631;-63
2023/05/19 07:47:50;;;;;;;7.37;5.97;;;;;;;24.64;50.83;99668.19;5030198;28;20245;-64
2023/05/19 07:50:16;;;;;;;6.33;5.83;;;;;;;24.53;50.18;99661.16;5031118;28;20261;-64
2023/05/19 07:52:43;;;;;;;8.47;6.43;;;;;;;24.47;50.63;99656.03;5031438;28;20195;-65
2023/05/19 07:55:10;;;;;;;9.10;6.63;;;;;;;24.29;51.58;99654.78;5031391;28;20276;-65
2023/05/19 07:57:37;;;;;;;14.67;6.00;;;;;;;24.19;51.15;99660.28;5028081;28;20194;-64
2023/05/19 08:00:06;;;;;;;52.73;8.53;;;;;;;24.07;52.96;99659.00;5029790;28;20261;-64
2023/05/19 08:02:34;;;;;;;7.33;6.63;;;;;;;24.11;52.98;99657.34;5024270;28;20218;-65
2023/05/19 08:05:01;;;;;;;7.13;6.30;;;;;;;23.92;52.98;99654.44;5027476;28;20559;-66
2023/05/19 08:07:27;;;;;;;10.63;5.87;;;;;;;24.28;51.83;99658.59;5030805;28;20191;-66
2023/05/19 08:09:54;;;;;;;13.30;6.67;;;;;;;24.38;51.77;99661.25;5030088;28;20199;-64
2023/05/19 08:12:21;;;;;;;8.43;6.13;;;;;;;24.41;51.49;99666.13;5031502;28;20186;-65
2023/05/19 08:14:47;;;;;;;8.67;6.13;;;;;;;24.51;51.68;99668.75;5026759;28;20271;-64
2023/05/19 08:17:15;;;;;;;11.73;6.53;;;;;;;24.56;51.00;99673.34;5030128;28;20221;-64
2023/05/19 08:19:43;;;;;;;7.17;6.07;;;;;;;24.37;50.50;99678.63;5034554;28;20197;-65
2023/05/19 08:22:09;;;;;;;7.60;6.70;;;;;;;24.21;50.94;99673.56;5033390;28;20194;-65
2023/05/19 08:24:37;;;;;;;6.97;6.37;;;;;;;24.29;51.73;99681.13;5031707;28;20195;-64
2023/05/19 08:27:05;;;;;;;12.97;6.40;;;;;;;24.60;51.14;99683.41;5031967;28;20214;-66
2023/05/19 08:29:32;;;;;;;7.77;7.03;;;;;;;24.63;51.51;99677.41;5034511;28;20225;-66
2023/05/19 08:31:59;;;;;;;9.77;6.33;;;;;;;24.75;51.01;99669.69;5031135;28;20188;-67
2023/05/19 08:34:25;;;;;;;11.47;6.13;;;;;;;25.13;50.20;99670.75;5034622;28;20262;-65
2023/05/19 08:36:56;;;;;;;6.60;6.10;;;;;;;25.35;49.41;99678.47;5031475;28;20196;-66
2023/05/19 08:39:25;;;;;;;29.33;7.60;;;;;;;25.82;50.08;99673.00;5034205;28;20258;-66
2023/05/19 08:41:52;;;;;;;9.77;6.27;;;;;;;26.00;48.58;99681.25;5032810;28;20193;-65
2023/05/19 08:44:19;;;;;;;8.97;6.37;;;;;;;26.24;48.84;99681.19;5034614;28;20243;-66
2023/05/19 08:46:47;;;;;;;9.77;6.30;;;;;;;26.29;47.49;99675.69;5034377;28;20193;-65
2023/05/19 08:49:15;;;;;;;6.50;6.10;;;;;;;26.54;46.87;99678.84;5034471;28;20189;-66
2023/05/19 08:51:49;;;;;;;23.27;8.00;;;;;;;26.66;46.50;99668.34;5032621;28;20665;-66
2023/05/19 08:54:19;;;;;;;7.63;6.93;;;;;;;26.67;45.75;99669.16;5034051;28;20205;-67
2023/05/19 08:56:47;;;;;;;7.43;6.83;;;;;;;26.70;45.95;99671.31;5033833;28;20227;-66
2023/05/19 08:59:14;;;;;;;7.87;6.93;;;;;;;27.00;45.49;99668.88;5034413;28;20623;-66
2023/05/19 09:01:44;;;;;;;12.07;6.33;;;;;;;27.32;44.02;99670.81;5031851;28;20197;-66
2023/05/19 09:04:11;;;;;;;9.47;6.90;;;;;;;27.31;43.06;99661.78;5029382;28;20568;-69
2023/05/19 09:06:39;;;;;;;9.27;7.93;;;;;;;27.16;43.76;99674.88;5030384;28;20194;-69
2023/05/19 09:09:07;;;;;;;7.77;7.13;;;;;;;27.21;41.63;99670.19;5030859;28;20198;-69
2023/05/19 09:11:36;;;;;;;8.77;7.90;;;;;;;27.07;42.11;99674.75;5027470;28;20700;-73
2023/05/19 09:14:03;;;;;;;11.30;7.03;;;;;;;27.37;41.98;99665.25;5028566;28;20197;-71
2023/05/19 09:16:31;;;;;;;10.80;7.63;;;;;;;27.87;40.15;99661.53;5022029;28;20217;-71
2023/05/19 09:18:59;;;;;;;31.83;9.03;;;;;;;27.98;39.44;99652.81;5021526;28;20198;-73
2023/05/19 09:21:29;;;;;;;8.87;7.70;;;;;;;28.02;39.01;99653.03;5028977;28;20685;-72
2023/05/19 09:23:56;;;;;;;10.00;7.63;;;;;;;27.94;41.06;99642.84;5022000;28;20247;-72
2023/05/19 09:26:23;;;;;;;9.37;7.37;;;;;;;28.24;39.53;99653.09;5029539;28;20273;-71
2023/05/19 09:28:51;;;;;;;8.73;7.37;;;;;;;28.58;38.92;99662.41;5022345;28;20548;-68
2023/05/19 09:31:18;;;;;;;8.23;7.40;;;;;;;28.50;36.69;99662.38;5028607;28;20235;-71
2023/05/19 09:33:44;;;;;;;18.10;7.93;;;;;;;28.84;40.69;99654.41;5029342;28;20712;-74
2023/05/19 09:36:11;;;;;;;11.70;7.63;;;;;;;29.31;38.93;99667.44;5022309;28;20705;-74
2023/05/19 09:38:39;;;;;;;9.03;7.73;;;;;;;29.57;36.26;99654.72;5013245;28;20252;-73
2023/05/19 09:41:07;;;;;;;11.30;7.40;;;;;;;29.45;37.52;99653.66;5027782;28;20247;-73
2023/05/19 09:43:35;;;;;;;8.83;7.97;;;;;;;29.22;36.42;99644.69;5031861;28;20190;-73
2023/05/19 09:46:06;;;;;;;12.60;8.03;;;;;;;29.27;37.09;99641.81;5032842;28;20669;-76
2023/05/19 09:48:33;;;;;;;9.30;7.47;;;;;;;28.98;38.28;99636.81;5032281;28;20192;-75
2023/05/19 09:51:01;;;;;;;10.83;7.60;;;;;;;29.02;36.44;99639.75;5032937;28;20207;-75
2023/05/19 09:53:30;;;;;;;9.23;8.30;;;;;;;29.23;36.43;99634.56;5032371;28;20193;-75
2023/05/19 09:55:57;;;;;;;8.77;8.17;;;;;;;29.38;38.14;99637.69;5030660;28;20221;-72
2023/05/19 09:58:25;;;;;;;31.43;9.60;;;;;;;29.26;37.17;99640.22;5012767;28;20285;-72
2023/05/19 10:00:53;;;;;;;43.60;9.93;;;;;;;28.98;36.74;99644.19;5012603;28;20194;-73
2023/05/19 10:03:23;;;;;;;11.03;8.77;;;;;;;28.87;36.85;99640.13;5013904;28;20194;-74
2023/05/19 10:05:50;;;;;;;9.50;8.67;;;;;;;28.72;37.63;99624.91;5017923;28;20273;-74
2023/05/19 10:08:18;;;;;;;10.40;8.73;;;;;;;28.20;37.71;99611.91;5028533;28;20580;-78
2023/05/19 10:10:46;;;;;;;11.93;9.00;;;;;;;27.95;39.22;99623.41;5021438;28;20245;-76
2023/05/19 10:13:14;;;;;;;18.27;9.23;;;;;;;27.83;40.32;99616.84;5013637;28;20196;-79
2023/05/19 10:15:41;;;;;;;10.37;9.33;;;;;;;27.82;40.12;99615.22;5031225;28;20217;-79
2023/05/19 10:18:09;;;;;;;15.10;8.40;;;;;;;27.49;39.72;99621.91;5022052;28;20213;-77
2023/05/19 10:20:37;;;;;;;11.70;8.13;;;;;;;27.31;43.10;99617.34;5024982;28;20201;-72
2023/05/19 10:23:05;;;;;;;26.40;9.83;;;;;;;27.25;45.06;99611.19;5022290;28;20194;-77
2023/05/19 10:25:33;;;;;;;18.23;10.40;;;;;;;27.26;45.26;99611.97;5017157;28;20202;-81
2023/05/19 10:28:03;;;;;;;18.67;9.70;;;;;;;27.25;45.51;99604.91;5014679;28;20197;-81
2023/05/19 10:30:35;;;;;;;17.13;9.90;;;;;;;27.28;43.12;99604.31;5019909;28;20298;-77
2023/05/19 10:33:06;;;;;;;16.43;8.87;;;;;;;27.27;41.99;99602.69;5022740;28;20198;-78
2023/05/19 10:35:52;;;;;;;26.00;9.83;;;;;;;27.27;39.73;99608.94;5020987;28;20212;-78
2023/05/19 10:38:28;;;;;;;9.83;9.03;;;;;;;27.42;39.60;99605.09;5021419;28;20197;-80
2023/05/19 10:41:02;;;;;;;24.17;10.20;;;;;;;27.68;40.86;99598.81;5017820;28;20204;-77
2023/05/19 10:43:42;;;;;;;30.50;10.30;;;;;;;27.99;40.70;99599.84;5018533;28;20196;-82
2023/05/19 10:46:09;;;;;;;9.77;8.10;;;;;;;28.35;40.11;99603.38;5016115;28;20198;-84
2023/05/19 10:48:36;;;;;;;19.40;9.60;;;;;;;28.64;39.71;99594.75;5021066;28;20258;-79
2023/05/19 10:51:05;;;;;;;10.27;9.37;;;;;;;28.62;36.95;99608.75;5031342;28;20753;-82
2023/05/19 10:53:33;;;;;;;9.90;8.90;;;;;;;28.56;36.37;99620.94;5029129;28;20190;-73
2023/05/19 10:56:02;;;;;;;24.20;9.40;;;;;;;28.36;36.86;99610.44;5024215;28;20221;-72
2023/05/19 10:58:40;;;;;;;9.27;8.50;;;;;;;28.12;37.17;99612.66;5026244;28;20760;-73
2023/05/19 11:01:09;;;;;;;9.87;9.13;;;;;;;27.90;38.03;99607.13;5025764;28;20193;-74
2023/05/19 11:03:46;;;;;;;17.37;8.90;;;;;;;27.88;38.75;99603.06;5031336;28;20212;-74
2023/05/19 11:06:29;;;;;;;8.90;8.17;;;;;;;27.76;38.65;99611.75;5031531;28;20221;-74
2023/05/19 11:08:59;;;;;;;21.70;9.50;;;;;;;27.77;39.14;99593.47;5022852;28;20189;-78
2023/05/19 11:11:27;;;;;;;12.17;9.20;;;;;;;27.83;41.28;99608.66;5030656;28;20212;-79
2023/05/19 11:13:55;;;;;;;25.33;9.90;;;;;;;27.80;42.26;99606.50;5023778;28;20194;-81
2023/05/19 11:16:28;;;;;;;9.83;9.03;;;;;;;27.90;41.68;99628.16;5025875;28;20302;-80
2023/05/19 11:18:56;;;;;;;9.47;7.37;;;;;;;27.43;37.46;99640.28;5029552;28;20270;-74
2023/05/19 11:21:22;;;;;;;7.10;6.43;;;;;;;26.73;40.11;99635.25;5030257;28;20193;-77
2023/05/19 11:23:51;;;;;;;13.03;6.30;;;;;;;26.12;41.87;99615.47;5030612;28;20252;-77
2023/05/19 11:26:39;;;;;;;27.93;7.80;;;;;;;26.19;41.72;99611.28;5029565;28;20203;-74
2023/05/19 11:29:06;;;;;;;8.10;6.23;;;;;;;26.08;41.13;99611.69;5027216;28;20185;-78
2023/05/19 11:31:35;;;;;;;7.43;6.80;;;;;;;26.12;41.88;99610.84;5031122;28;20255;-75
2023/05/19 11:34:03;;;;;;;7.10;6.27;;;;;;;25.50;42.29;99610.25;5029063;28;20212;-74
2023/05/19 11:36:31;;;;;;;8.23;6.93;;;;;;;25.71;42.02;99595.31;5027629;28;20308;-73